sensor_id;sensor_type;location;lat;lon;timestamp;pressure;altitude;pressure_sealevel;temperature;humidity
58757;BME280;44527;47.460;19.016;2023-02-11T00:00:22;102323.28;;;-1.84;76.31
58757;BME280;44527;47.460;19.016;2023-02-11T00:03:26;102316.34;;;-1.88;76.04
58757;BME280;44527;47.460;19.016;2023-02-11T00:06:32;102321.41;;;-1.94;76.11
58757;BME280;44527;47.460;19.016;2023-02-11T00:09:37;102321.34;;;-1.97;76.21
58757;BME280;44527;47.460;19.016;2023-02-11T00:12:42;102314.25;;;-2.11;77.09
58757;BME280;44527;47.460;19.016;2023-02-11T00:15:44;102310.94;;;-2.50;78.51
58757;BME280;44527;47.460;19.016;2023-02-11T00:18:48;102309.62;;;-2.74;79.97
58757;BME280;44527;47.460;19.016;2023-02-11T00:21:51;102304.72;;;-2.62;79.57
58757;BME280;44527;47.460;19.016;2023-02-11T00:24:53;102303.75;;;-2.67;79.83
58757;BME280;44527;47.460;19.016;2023-02-11T00:28:01;102307.06;;;-2.74;80.08
58757;BME280;44527;47.460;19.016;2023-02-11T00:31:03;102305.59;;;-2.61;79.49
58757;BME280;44527;47.460;19.016;2023-02-11T00:34:06;102304.78;;;-2.59;79.07
58757;BME280;44527;47.460;19.016;2023-02-11T00:37:09;102297.19;;;-2.54;78.78
58757;BME280;44527;47.460;19.016;2023-02-11T00:40:16;102294.94;;;-2.81;80.32
58757;BME280;44527;47.460;19.016;2023-02-11T00:43:18;102290.81;;;-2.71;79.41
58757;BME280;44527;47.460;19.016;2023-02-11T00:46:24;102292.38;;;-2.80;80.03
58757;BME280;44527;47.460;19.016;2023-02-11T00:49:27;102295.47;;;-2.96;80.53
58757;BME280;44527;47.460;19.016;2023-02-11T00:52:30;102286.19;;;-2.88;80.18
58757;BME280;44527;47.460;19.016;2023-02-11T00:55:33;102295.47;;;-2.96;80.51
58757;BME280;44527;47.460;19.016;2023-02-11T00:58:36;102295.06;;;-2.73;80.02
58757;BME280;44527;47.460;19.016;2023-02-11T01:01:38;102282.50;;;-2.60;79.40
58757;BME280;44527;47.460;19.016;2023-02-11T01:04:42;102281.09;;;-2.42;78.61
58757;BME280;44527;47.460;19.016;2023-02-11T01:07:44;102269.03;;;-2.46;78.01
58757;BME280;44527;47.460;19.016;2023-02-11T01:10:58;102266.28;;;-2.57;78.27
58757;BME280;44527;47.460;19.016;2023-02-11T01:14:01;102260.50;;;-2.89;79.87
58757;BME280;44527;47.460;19.016;2023-02-11T01:17:04;102262.25;;;-2.87;78.99
58757;BME280;44527;47.460;19.016;2023-02-11T01:20:13;102249.38;;;-3.29;80.89
58757;BME280;44527;47.460;19.016;2023-02-11T01:23:16;102245.34;;;-3.18;80.58
58757;BME280;44527;47.460;19.016;2023-02-11T01:26:19;102240.88;;;-3.27;81.04
58757;BME280;44527;47.460;19.016;2023-02-11T01:29:24;102240.91;;;-3.25;81.28
58757;BME280;44527;47.460;19.016;2023-02-11T01:32:28;102236.81;;;-3.17;80.39
58757;BME280;44527;47.460;19.016;2023-02-11T01:35:31;102235.09;;;-3.18;80.37
58757;BME280;44527;47.460;19.016;2023-02-11T01:38:34;102235.62;;;-2.90;79.75
58757;BME280;44527;47.460;19.016;2023-02-11T01:41:38;102233.09;;;-2.89;79.81
58757;BME280;44527;47.460;19.016;2023-02-11T01:44:40;102227.38;;;-2.72;78.76
58757;BME280;44527;47.460;19.016;2023-02-11T01:47:43;102228.62;;;-2.53;78.29
58757;BME280;44527;47.460;19.016;2023-02-11T01:50:48;102223.59;;;-2.47;77.21
58757;BME280;44527;47.460;19.016;2023-02-11T01:53:54;102226.75;;;-2.62;77.86
58757;BME280;44527;47.460;19.016;2023-02-11T01:57:20;102225.16;;;-2.56;77.18
58757;BME280;44527;47.460;19.016;2023-02-11T02:00:37;102224.34;;;-2.53;77.40
58757;BME280;44527;47.460;19.016;2023-02-11T02:03:44;102220.78;;;-2.60;77.03
58757;BME280;44527;47.460;19.016;2023-02-11T02:06:55;102218.00;;;-2.72;77.24
58757;BME280;44527;47.460;19.016;2023-02-11T02:10:07;102214.41;;;-2.80;77.31
58757;BME280;44527;47.460;19.016;2023-02-11T02:13:11;102214.19;;;-2.91;77.55
58757;BME280;44527;47.460;19.016;2023-02-11T02:16:17;102219.50;;;-2.83;77.46
58757;BME280;44527;47.460;19.016;2023-02-11T02:19:41;102219.09;;;-2.59;75.95
58757;BME280;44527;47.460;19.016;2023-02-11T02:22:57;102213.56;;;-2.79;76.54
58757;BME280;44527;47.460;19.016;2023-02-11T02:36:33;102217.84;;;-2.31;74.42
58757;BME280;44527;47.460;19.016;2023-02-11T02:39:39;102218.00;;;-2.23;74.44
58757;BME280;44527;47.460;19.016;2023-02-11T02:42:43;102216.03;;;-2.37;74.44
58757;BME280;44527;47.460;19.016;2023-02-11T02:45:45;102208.41;;;-2.32;74.48
58757;BME280;44527;47.460;19.016;2023-02-11T02:48:49;102221.19;;;-2.37;74.43
58757;BME280;44527;47.460;19.016;2023-02-11T02:52:15;102211.22;;;-2.67;75.25
58757;BME280;44527;47.460;19.016;2023-02-11T02:55:30;102215.03;;;-2.46;74.90
58757;BME280;44527;47.460;19.016;2023-02-11T02:58:55;102204.91;;;-2.37;74.72
58757;BME280;44527;47.460;19.016;2023-02-11T03:06:03;102209.50;;;-2.18;72.90
58757;BME280;44527;47.460;19.016;2023-02-11T03:09:23;102201.56;;;-2.30;73.20
58757;BME280;44527;47.460;19.016;2023-02-11T03:12:28;102198.03;;;-2.37;73.46
58757;BME280;44527;47.460;19.016;2023-02-11T03:15:37;102198.09;;;-2.35;73.49
58757;BME280;44527;47.460;19.016;2023-02-11T03:18:43;102194.66;;;-2.34;73.61
58757;BME280;44527;47.460;19.016;2023-02-11T03:21:48;102192.09;;;-2.34;73.28
58757;BME280;44527;47.460;19.016;2023-02-11T03:24:55;102191.28;;;-2.32;73.55
58757;BME280;44527;47.460;19.016;2023-02-11T03:31:53;102187.09;;;-2.26;72.68
58757;BME280;44527;47.460;19.016;2023-02-11T03:35:03;102184.53;;;-2.25;72.69
58757;BME280;44527;47.460;19.016;2023-02-11T03:38:21;102185.38;;;-2.24;72.84
58757;BME280;44527;47.460;19.016;2023-02-11T03:41:26;102178.38;;;-2.33;72.87
58757;BME280;44527;47.460;19.016;2023-02-11T03:44:33;102172.16;;;-2.47;73.05
58757;BME280;44527;47.460;19.016;2023-02-11T03:47:39;102162.31;;;-2.71;74.20
58757;BME280;44527;47.460;19.016;2023-02-11T03:50:44;102160.84;;;-2.57;73.63
58757;BME280;44527;47.460;19.016;2023-02-11T03:53:52;102150.97;;;-2.33;73.15
58757;BME280;44527;47.460;19.016;2023-02-11T03:56:58;102144.59;;;-2.55;73.52
58757;BME280;44527;47.460;19.016;2023-02-11T04:00:04;102145.63;;;-2.45;73.15
58757;BME280;44527;47.460;19.016;2023-02-11T04:03:12;102135.34;;;-2.45;73.20
58757;BME280;44527;47.460;19.016;2023-02-11T04:06:15;102129.38;;;-2.42;73.30
58757;BME280;44527;47.460;19.016;2023-02-11T04:09:24;102131.84;;;-2.50;73.20
58757;BME280;44527;47.460;19.016;2023-02-11T04:12:27;102123.97;;;-2.58;73.85
58757;BME280;44527;47.460;19.016;2023-02-11T04:15:29;102116.06;;;-2.70;74.11
58757;BME280;44527;47.460;19.016;2023-02-11T04:18:32;102111.50;;;-2.86;74.71
58757;BME280;44527;47.460;19.016;2023-02-11T04:21:36;102108.63;;;-3.03;75.59
58757;BME280;44527;47.460;19.016;2023-02-11T04:24:39;102099.28;;;-2.99;75.41
58757;BME280;44527;47.460;19.016;2023-02-11T04:27:41;102102.84;;;-2.93;74.92
58757;BME280;44527;47.460;19.016;2023-02-11T04:30:44;102104.75;;;-2.80;74.61
58757;BME280;44527;47.460;19.016;2023-02-11T04:33:47;102107.50;;;-2.70;74.12
58757;BME280;44527;47.460;19.016;2023-02-11T04:36:51;102101.22;;;-2.86;74.77
58757;BME280;44527;47.460;19.016;2023-02-11T04:39:56;102109.16;;;-2.74;74.41
58757;BME280;44527;47.460;19.016;2023-02-11T04:42:59;102101.69;;;-2.59;74.01
58757;BME280;44527;47.460;19.016;2023-02-11T04:46:01;102112.06;;;-2.52;73.51
58757;BME280;44527;47.460;19.016;2023-02-11T04:49:04;102106.84;;;-2.59;73.37
58757;BME280;44527;47.460;19.016;2023-02-11T04:52:08;102099.34;;;-2.45;73.11
58757;BME280;44527;47.460;19.016;2023-02-11T04:55:11;102104.50;;;-2.45;73.28
58757;BME280;44527;47.460;19.016;2023-02-11T04:58:13;102101.84;;;-2.51;72.61
58757;BME280;44527;47.460;19.016;2023-02-11T05:01:16;102116.25;;;-2.59;72.82
58757;BME280;44527;47.460;19.016;2023-02-11T05:04:19;102103.47;;;-2.55;72.65
58757;BME280;44527;47.460;19.016;2023-02-11T05:07:24;102103.97;;;-2.75;73.43
58757;BME280;44527;47.460;19.016;2023-02-11T05:10:27;102102.84;;;-2.91;73.74
58757;BME280;44527;47.460;19.016;2023-02-11T05:13:30;102110.06;;;-2.72;73.39
58757;BME280;44527;47.460;19.016;2023-02-11T05:16:33;102113.62;;;-2.62;72.90
58757;BME280;44527;47.460;19.016;2023-02-11T05:19:36;102120.44;;;-2.64;72.64
58757;BME280;44527;47.460;19.016;2023-02-11T05:22:38;102108.19;;;-2.79;73.81
58757;BME280;44527;47.460;19.016;2023-02-11T05:25:41;102116.12;;;-2.67;72.86
58757;BME280;44527;47.460;19.016;2023-02-11T05:28:43;102113.53;;;-2.67;72.96
58757;BME280;44527;47.460;19.016;2023-02-11T05:31:46;102123.97;;;-2.58;72.72
58757;BME280;44527;47.460;19.016;2023-02-11T05:34:48;102108.41;;;-2.67;73.66
58757;BME280;44527;47.460;19.016;2023-02-11T05:37:51;102103.09;;;-2.78;74.22
58757;BME280;44527;47.460;19.016;2023-02-11T05:40:53;102098.88;;;-2.72;73.42
58757;BME280;44527;47.460;19.016;2023-02-11T05:43:56;102097.03;;;-2.81;74.36
58757;BME280;44527;47.460;19.016;2023-02-11T05:46:58;102099.56;;;-2.84;74.39
58757;BME280;44527;47.460;19.016;2023-02-11T05:50:02;102101.44;;;-2.74;75.02
58757;BME280;44527;47.460;19.016;2023-02-11T05:53:04;102098.78;;;-2.80;74.85
58757;BME280;44527;47.460;19.016;2023-02-11T05:56:08;102091.22;;;-2.71;74.26
58757;BME280;44527;47.460;19.016;2023-02-11T05:59:13;102093.12;;;-2.59;72.78
58757;BME280;44527;47.460;19.016;2023-02-11T06:02:16;102093.12;;;-2.58;72.74
58757;BME280;44527;47.460;19.016;2023-02-11T06:05:19;102103.56;;;-2.50;72.09
58757;BME280;44527;47.460;19.016;2023-02-11T06:08:21;102096.62;;;-2.54;72.52
58757;BME280;44527;47.460;19.016;2023-02-11T06:11:24;102106.97;;;-2.49;72.91
58757;BME280;44527;47.460;19.016;2023-02-11T06:14:31;102107.31;;;-2.29;71.39
58757;BME280;44527;47.460;19.016;2023-02-11T06:17:38;102110.78;;;-2.26;71.24
58757;BME280;44527;47.460;19.016;2023-02-11T06:20:42;102112.50;;;-2.26;71.24
58757;BME280;44527;47.460;19.016;2023-02-11T06:23:45;102116.03;;;-2.20;71.55
58757;BME280;44527;47.460;19.016;2023-02-11T06:26:48;102105.00;;;-2.10;71.38
58757;BME280;44527;47.460;19.016;2023-02-11T06:29:51;102096.44;;;-2.09;71.15
58757;BME280;44527;47.460;19.016;2023-02-11T06:32:58;102089.81;;;-1.93;70.27
58757;BME280;44527;47.460;19.016;2023-02-11T06:36:01;102082.53;;;-1.57;69.27
58757;BME280;44527;47.460;19.016;2023-02-11T06:39:04;102081.88;;;-1.38;68.12
58757;BME280;44527;47.460;19.016;2023-02-11T06:42:08;102085.38;;;-1.33;67.52
58757;BME280;44527;47.460;19.016;2023-02-11T06:45:11;102086.38;;;-1.20;67.13
58757;BME280;44527;47.460;19.016;2023-02-11T06:48:14;102087.34;;;-1.09;66.58
58757;BME280;44527;47.460;19.016;2023-02-11T06:51:17;102078.94;;;-0.91;66.72
58757;BME280;44527;47.460;19.016;2023-02-11T06:54:22;102079.84;;;-0.84;65.87
58757;BME280;44527;47.460;19.016;2023-02-11T06:57:24;102079.38;;;-0.31;64.64
58757;BME280;44527;47.460;19.016;2023-02-11T07:00:30;102082.16;;;-0.02;63.71
58757;BME280;44527;47.460;19.016;2023-02-11T07:03:35;102078.03;;;0.31;62.76
58757;BME280;44527;47.460;19.016;2023-02-11T07:06:41;102084.91;;;0.35;62.04
58757;BME280;44527;47.460;19.016;2023-02-11T07:09:44;102073.81;;;0.73;61.16
58757;BME280;44527;47.460;19.016;2023-02-11T07:12:47;102070.37;;;0.72;61.62
58757;BME280;44527;47.460;19.016;2023-02-11T07:15:51;102079.81;;;0.55;61.82
58757;BME280;44527;47.460;19.016;2023-02-11T07:18:54;102080.69;;;0.63;62.13
58757;BME280;44527;47.460;19.016;2023-02-11T07:21:56;102076.38;;;0.56;62.31
58757;BME280;44527;47.460;19.016;2023-02-11T07:24:59;102061.63;;;0.33;63.78
58757;BME280;44527;47.460;19.016;2023-02-11T07:28:02;102077.09;;;0.19;64.52
58757;BME280;44527;47.460;19.016;2023-02-11T07:31:11;102075.50;;;0.49;64.64
58757;BME280;44527;47.460;19.016;2023-02-11T07:34:14;102081.66;;;1.08;62.22
58757;BME280;44527;47.460;19.016;2023-02-11T07:37:16;102082.50;;;1.22;62.79
58757;BME280;44527;47.460;19.016;2023-02-11T07:40:19;102078.22;;;1.41;62.14
58757;BME280;44527;47.460;19.016;2023-02-11T07:43:21;102071.28;;;1.49;61.17
58757;BME280;44527;47.460;19.016;2023-02-11T07:46:25;102065.28;;;1.53;62.95
58757;BME280;44527;47.460;19.016;2023-02-11T07:49:29;102063.44;;;1.92;60.46
58757;BME280;44527;47.460;19.016;2023-02-11T07:52:32;102056.41;;;2.26;57.13
58757;BME280;44527;47.460;19.016;2023-02-11T07:55:36;102045.09;;;2.49;56.16
58757;BME280;44527;47.460;19.016;2023-02-11T07:58:38;102047.53;;;2.72;54.92
58757;BME280;44527;47.460;19.016;2023-02-11T08:01:44;102041.47;;;2.78;54.51
58757;BME280;44527;47.460;19.016;2023-02-11T08:04:46;102049.22;;;2.85;53.90
58757;BME280;44527;47.460;19.016;2023-02-11T08:07:53;102048.44;;;2.68;54.41
58757;BME280;44527;47.460;19.016;2023-02-11T08:10:56;102051.78;;;2.84;54.36
58757;BME280;44527;47.460;19.016;2023-02-11T08:13:58;102055.91;;;3.15;53.71
58757;BME280;44527;47.460;19.016;2023-02-11T08:17:01;102051.63;;;3.10;53.61
58757;BME280;44527;47.460;19.016;2023-02-11T08:20:04;102048.88;;;3.27;53.04
58757;BME280;44527;47.460;19.016;2023-02-11T08:23:08;102048.72;;;3.45;53.32
58757;BME280;44527;47.460;19.016;2023-02-11T08:26:14;102047.06;;;3.36;52.81
58757;BME280;44527;47.460;19.016;2023-02-11T08:29:17;102057.37;;;3.42;52.69
58757;BME280;44527;47.460;19.016;2023-02-11T08:32:20;102047.91;;;3.38;52.35
58757;BME280;44527;47.460;19.016;2023-02-11T08:35:23;102047.31;;;3.06;54.22
58757;BME280;44527;47.460;19.016;2023-02-11T08:38:27;102047.09;;;3.33;53.40
58757;BME280;44527;47.460;19.016;2023-02-11T08:41:31;102056.47;;;3.50;52.61
58757;BME280;44527;47.460;19.016;2023-02-11T08:44:33;102055.91;;;3.15;54.16
58757;BME280;44527;47.460;19.016;2023-02-11T08:47:36;102048.03;;;3.23;53.94
58757;BME280;44527;47.460;19.016;2023-02-11T08:50:39;102060.03;;;3.38;53.92
58757;BME280;44527;47.460;19.016;2023-02-11T08:53:42;102045.16;;;3.57;53.11
58757;BME280;44527;47.460;19.016;2023-02-11T08:56:50;102047.06;;;3.36;54.19
58757;BME280;44527;47.460;19.016;2023-02-11T08:59:53;102050.47;;;3.43;53.83
58757;BME280;44527;47.460;19.016;2023-02-11T09:02:55;102061.81;;;3.34;54.16
58757;BME280;44527;47.460;19.016;2023-02-11T09:06:04;102050.56;;;3.32;54.41
58757;BME280;44527;47.460;19.016;2023-02-11T09:09:10;102050.50;;;3.38;54.40
58757;BME280;44527;47.460;19.016;2023-02-11T09:12:14;102045.34;;;3.35;54.38
58757;BME280;44527;47.460;19.016;2023-02-11T09:15:17;102037.37;;;3.54;54.22
58757;BME280;44527;47.460;19.016;2023-02-11T09:18:19;102039.84;;;3.66;53.60
58757;BME280;44527;47.460;19.016;2023-02-11T09:21:21;102036.34;;;3.70;53.94
58757;BME280;44527;47.460;19.016;2023-02-11T09:24:27;102038.09;;;3.69;53.99
58757;BME280;44527;47.460;19.016;2023-02-11T09:27:29;102025.72;;;3.91;53.05
58757;BME280;44527;47.460;19.016;2023-02-11T09:30:32;102020.91;;;4.32;52.40
58757;BME280;44527;47.460;19.016;2023-02-11T09:33:36;102023.84;;;4.69;51.90
58757;BME280;44527;47.460;19.016;2023-02-11T09:36:41;102018.09;;;5.04;49.41
58757;BME280;44527;47.460;19.016;2023-02-11T09:39:44;102018.50;;;5.33;48.05
58757;BME280;44527;47.460;19.016;2023-02-11T09:43:02;102024.69;;;5.25;48.34
58757;BME280;44527;47.460;19.016;2023-02-11T09:46:08;102015.47;;;5.56;48.20
58757;BME280;44527;47.460;19.016;2023-02-11T09:49:25;102016.87;;;5.27;48.41
58757;BME280;44527;47.460;19.016;2023-02-11T09:52:43;102014.62;;;5.04;49.01
58757;BME280;44527;47.460;19.016;2023-02-11T09:55:53;101999.09;;;4.99;50.05
58757;BME280;44527;47.460;19.016;2023-02-11T09:59:00;102000.41;;;5.71;48.67
58757;BME280;44527;47.460;19.016;2023-02-11T10:02:12;102003.41;;;5.98;47.54
58757;BME280;44527;47.460;19.016;2023-02-11T10:09:03;101994.09;;;5.85;48.57
58757;BME280;44527;47.460;19.016;2023-02-11T10:22:13;101983.94;;;6.14;47.90
58757;BME280;44527;47.460;19.016;2023-02-11T10:28:29;101979.56;;;6.15;47.25
58757;BME280;44527;47.460;19.016;2023-02-11T10:31:38;101973.88;;;5.96;47.66
58757;BME280;44527;47.460;19.016;2023-02-11T10:34:43;101964.75;;;6.18;47.32
58757;BME280;44527;47.460;19.016;2023-02-11T10:37:48;101956.72;;;6.26;47.02
58757;BME280;44527;47.460;19.016;2023-02-11T10:40:51;101959.91;;;6.39;47.07
58757;BME280;44527;47.460;19.016;2023-02-11T10:43:54;101954.19;;;6.23;46.92
58757;BME280;44527;47.460;19.016;2023-02-11T10:47:02;101949.94;;;6.19;46.91
58757;BME280;44527;47.460;19.016;2023-02-11T10:50:25;101943.62;;;5.89;47.61
58757;BME280;44527;47.460;19.016;2023-02-11T10:53:28;101936.41;;;6.02;47.42
58757;BME280;44527;47.460;19.016;2023-02-11T10:56:36;101930.31;;;6.03;47.68
58757;BME280;44527;47.460;19.016;2023-02-11T10:59:39;101930.03;;;6.15;47.19
58757;BME280;44527;47.460;19.016;2023-02-11T11:02:43;101924.41;;;6.33;46.30
58757;BME280;44527;47.460;19.016;2023-02-11T11:05:49;101925.94;;;6.42;46.47
58757;BME280;44527;47.460;19.016;2023-02-11T11:08:52;101921.94;;;6.64;45.98
58757;BME280;44527;47.460;19.016;2023-02-11T11:11:57;101917.75;;;6.93;44.85
58757;BME280;44527;47.460;19.016;2023-02-11T11:18:17;101905.38;;;6.65;46.66
58757;BME280;44527;47.460;19.016;2023-02-11T11:21:34;101895.41;;;6.83;46.93
58757;BME280;44527;47.460;19.016;2023-02-11T11:24:43;101903.09;;;6.87;45.87
58757;BME280;44527;47.460;19.016;2023-02-11T11:27:49;101897.84;;;6.89;45.44
58757;BME280;44527;47.460;19.016;2023-02-11T11:30:53;101892.66;;;6.87;45.87
58757;BME280;44527;47.460;19.016;2023-02-11T11:34:18;101880.00;;;6.72;45.73
58757;BME280;44527;47.460;19.016;2023-02-11T11:37:32;101871.75;;;6.89;45.22
58757;BME280;44527;47.460;19.016;2023-02-11T11:40:36;101870.41;;;6.73;44.79
58757;BME280;44527;47.460;19.016;2023-02-11T11:57:04;101832.47;;;7.54;41.94
58757;BME280;44527;47.460;19.016;2023-02-11T12:00:16;101835.28;;;7.47;42.10
58757;BME280;44527;47.460;19.016;2023-02-11T12:13:16;101827.50;;;8.03;41.80
58757;BME280;44527;47.460;19.016;2023-02-11T12:16:35;101811.06;;;7.99;41.15
58757;BME280;44527;47.460;19.016;2023-02-11T12:19:42;101793.44;;;8.04;40.69
58757;BME280;44527;47.460;19.016;2023-02-11T12:26:11;101783.19;;;7.98;41.11
58757;BME280;44527;47.460;19.016;2023-02-11T12:42:48;101755.87;;;8.07;41.25
58757;BME280;44527;47.460;19.016;2023-02-11T12:46:27;101746.44;;;8.03;41.31
58757;BME280;44527;47.460;19.016;2023-02-11T12:50:05;101762.59;;;8.16;40.11
58757;BME280;44527;47.460;19.016;2023-02-11T12:53:23;101742.81;;;8.07;40.41
58757;BME280;44527;47.460;19.016;2023-02-11T12:56:51;101745.41;;;8.09;40.41
58757;BME280;44527;47.460;19.016;2023-02-11T13:00:12;101742.37;;;7.94;40.29
58757;BME280;44527;47.460;19.016;2023-02-11T13:06:33;101720.16;;;7.81;41.16
58757;BME280;44527;47.460;19.016;2023-02-11T13:09:47;101722.06;;;7.76;41.15
58757;BME280;44527;47.460;19.016;2023-02-11T13:12:54;101739.59;;;7.72;40.44
58757;BME280;44527;47.460;19.016;2023-02-11T13:16:24;101730.56;;;7.82;40.93
58757;BME280;44527;47.460;19.016;2023-02-11T13:19:44;101719.66;;;7.70;39.57
58757;BME280;44527;47.460;19.016;2023-02-11T13:23:22;101718.13;;;7.89;38.55
58757;BME280;44527;47.460;19.016;2023-02-11T13:39:18;101691.81;;;8.20;37.23
58757;BME280;44527;47.460;19.016;2023-02-11T13:42:22;101691.97;;;8.42;36.58
58757;BME280;44527;47.460;19.016;2023-02-11T13:45:47;101681.78;;;8.58;36.37
58757;BME280;44527;47.460;19.016;2023-02-11T13:48:53;101680.94;;;8.58;36.62
58757;BME280;44527;47.460;19.016;2023-02-11T13:51:56;101678.44;;;8.29;37.05
58757;BME280;44527;47.460;19.016;2023-02-11T14:05:32;101691.28;;;8.36;37.46
58757;BME280;44527;47.460;19.016;2023-02-11T14:12:30;101696.84;;;8.26;38.15
58757;BME280;44527;47.460;19.016;2023-02-11T14:15:39;101690.47;;;8.09;38.07
58757;BME280;44527;47.460;19.016;2023-02-11T14:22:13;101665.81;;;8.16;38.02
58757;BME280;44527;47.460;19.016;2023-02-11T14:25:25;101669.47;;;8.12;37.84
58757;BME280;44527;47.460;19.016;2023-02-11T14:28:29;101679.28;;;8.30;37.94
58757;BME280;44527;47.460;19.016;2023-02-11T14:32:01;101686.84;;;8.13;37.53
58757;BME280;44527;47.460;19.016;2023-02-11T14:39:01;101705.31;;;7.81;38.50
58757;BME280;44527;47.460;19.016;2023-02-11T14:42:18;101696.91;;;7.98;38.27
58757;BME280;44527;47.460;19.016;2023-02-11T14:45:25;101709.88;;;8.01;38.68
58757;BME280;44527;47.460;19.016;2023-02-11T14:48:36;101703.66;;;8.05;38.17
58757;BME280;44527;47.460;19.016;2023-02-11T14:51:41;101704.84;;;7.95;39.14
58757;BME280;44527;47.460;19.016;2023-02-11T14:54:47;101702.62;;;8.10;38.82
58757;BME280;44527;47.460;19.016;2023-02-11T14:58:26;101699.72;;;7.92;40.17
58757;BME280;44527;47.460;19.016;2023-02-11T15:01:34;101687.53;;;7.93;39.11
58757;BME280;44527;47.460;19.016;2023-02-11T15:04:37;101680.13;;;7.79;39.71
58757;BME280;44527;47.460;19.016;2023-02-11T15:07:52;101670.69;;;7.75;39.62
58757;BME280;44527;47.460;19.016;2023-02-11T15:11:00;101680.13;;;7.52;40.10
58757;BME280;44527;47.460;19.016;2023-02-11T15:14:23;101677.25;;;7.33;41.02
58757;BME280;44527;47.460;19.016;2023-02-11T15:17:30;101661.38;;;7.11;40.76
58757;BME280;44527;47.460;19.016;2023-02-11T15:20:35;101663.28;;;7.06;41.10
58757;BME280;44527;47.460;19.016;2023-02-11T15:23:38;101655.81;;;6.94;41.67
58757;BME280;44527;47.460;19.016;2023-02-11T15:26:44;101650.69;;;6.91;41.72
58757;BME280;44527;47.460;19.016;2023-02-11T15:29:48;101651.03;;;7.08;41.52
58757;BME280;44527;47.460;19.016;2023-02-11T15:32:57;101647.37;;;6.86;41.93
58757;BME280;44527;47.460;19.016;2023-02-11T15:36:01;101651.69;;;6.87;42.36
58757;BME280;44527;47.460;19.016;2023-02-11T15:39:28;101649.34;;;6.78;42.83
58757;BME280;44527;47.460;19.016;2023-02-11T15:42:34;101640.44;;;6.85;42.88
58757;BME280;44527;47.460;19.016;2023-02-11T15:45:59;101637.50;;;6.66;43.18
58757;BME280;44527;47.460;19.016;2023-02-11T15:49:02;101626.59;;;6.53;43.78
58757;BME280;44527;47.460;19.016;2023-02-11T15:52:06;101622.22;;;6.54;44.04
58757;BME280;44527;47.460;19.016;2023-02-11T15:55:13;101623.47;;;6.40;44.44
58757;BME280;44527;47.460;19.016;2023-02-11T15:58:16;101620.44;;;6.25;44.72
58757;BME280;44527;47.460;19.016;2023-02-11T16:01:30;101626.59;;;6.22;44.77
58757;BME280;44527;47.460;19.016;2023-02-11T16:04:36;101622.56;;;6.10;45.47
58757;BME280;44527;47.460;19.016;2023-02-11T16:07:47;101610.59;;;6.03;45.33
58757;BME280;44527;47.460;19.016;2023-02-11T16:11:03;101617.81;;;5.92;46.04
58757;BME280;44527;47.460;19.016;2023-02-11T16:17:32;101607.25;;;5.64;47.56
58757;BME280;44527;47.460;19.016;2023-02-11T16:20:35;101608.34;;;5.53;47.80
58757;BME280;44527;47.460;19.016;2023-02-11T16:23:39;101618.22;;;5.41;47.77
58757;BME280;44527;47.460;19.016;2023-02-11T16:26:51;101604.56;;;5.31;48.17
58757;BME280;44527;47.460;19.016;2023-02-11T16:29:55;101592.69;;;5.19;47.89
58757;BME280;44527;47.460;19.016;2023-02-11T16:32:59;101589.69;;;4.99;48.90
58757;BME280;44527;47.460;19.016;2023-02-11T16:36:12;101595.81;;;4.98;49.14
58757;BME280;44527;47.460;19.016;2023-02-11T16:39:16;101599.59;;;4.83;49.60
58757;BME280;44527;47.460;19.016;2023-02-11T16:42:19;101604.00;;;4.81;49.48
58757;BME280;44527;47.460;19.016;2023-02-11T16:45:21;101600.56;;;4.79;49.84
58757;BME280;44527;47.460;19.016;2023-02-11T16:48:24;101609.13;;;4.84;49.89
58757;BME280;44527;47.460;19.016;2023-02-11T16:51:26;101612.53;;;4.88;50.09
58757;BME280;44527;47.460;19.016;2023-02-11T16:54:29;101610.78;;;4.87;49.91
58757;BME280;44527;47.460;19.016;2023-02-11T16:57:31;101599.44;;;4.91;49.99
58757;BME280;44527;47.460;19.016;2023-02-11T17:00:35;101582.94;;;4.92;49.55
58757;BME280;44527;47.460;19.016;2023-02-11T17:03:38;101578.97;;;4.75;49.90
58757;BME280;44527;47.460;19.016;2023-02-11T17:06:42;101587.44;;;4.83;49.41
58757;BME280;44527;47.460;19.016;2023-02-11T17:09:44;101589.19;;;4.84;49.52
58757;BME280;44527;47.460;19.016;2023-02-11T17:12:48;101595.44;;;4.74;49.66
58757;BME280;44527;47.460;19.016;2023-02-11T17:15:51;101603.72;;;4.93;49.13
58757;BME280;44527;47.460;19.016;2023-02-11T17:18:54;101598.25;;;5.04;48.41
58757;BME280;44527;47.460;19.016;2023-02-11T17:21:56;101593.00;;;5.07;48.43
58757;BME280;44527;47.460;19.016;2023-02-11T17:24:58;101601.56;;;5.12;48.30
58757;BME280;44527;47.460;19.016;2023-02-11T17:28:07;101600.66;;;5.13;48.18
58757;BME280;44527;47.460;19.016;2023-02-11T17:31:10;101602.34;;;5.14;48.59
58757;BME280;44527;47.460;19.016;2023-02-11T17:34:13;101604.03;;;5.17;48.90
58757;BME280;44527;47.460;19.016;2023-02-11T17:37:16;101607.91;;;4.99;50.08
58757;BME280;44527;47.460;19.016;2023-02-11T17:40:20;101611.53;;;4.93;49.74
58757;BME280;44527;47.460;19.016;2023-02-11T17:43:23;101616.66;;;4.96;49.62
58757;BME280;44527;47.460;19.016;2023-02-11T17:46:26;101615.84;;;4.94;50.22
58757;BME280;44527;47.460;19.016;2023-02-11T17:49:33;101615.28;;;4.80;50.59
58757;BME280;44527;47.460;19.016;2023-02-11T17:52:36;101613.66;;;4.74;51.57
58757;BME280;44527;47.460;19.016;2023-02-11T17:55:39;101604.94;;;4.77;51.38
58757;BME280;44527;47.460;19.016;2023-02-11T17:58:41;101609.91;;;4.88;50.95
58757;BME280;44527;47.460;19.016;2023-02-11T18:01:44;101611.81;;;4.81;51.66
58757;BME280;44527;47.460;19.016;2023-02-11T18:04:47;101605.97;;;4.70;51.89
58757;BME280;44527;47.460;19.016;2023-02-11T18:07:49;101588.38;;;4.41;51.75